sensor_id;sensor_type;location;lat;lon;timestamp;P1;durP1;ratioP1;P2;durP2;ratioP2
58685;SDS011;44465;53.206;-6.106;2023-02-15T00:00:04;176.90;;;76.63;;
58685;SDS011;44465;53.206;-6.106;2023-02-15T00:02:31;171.98;;;72.07;;
58685;SDS011;44465;53.206;-6.106;2023-02-15T00:04:56;159.30;;;70.18;;
58685;SDS011;44465;53.206;-6.106;2023-02-15T00:07:22;143.75;;;64.82;;
58685;SDS011;44465;53.206;-6.106;2023-02-15T00:09:48;138.93;;;64.90;;
58685;SDS011;44465;53.206;-6.106;2023-02-15T00:12:14;138.15;;;62.63;;
58685;SDS011;44465;53.206;-6.106;2023-02-15T00:14:40;125.57;;;58.53;;
58685;SDS011;44465;53.206;-6.106;2023-02-15T00:17:07;125.88;;;57.20;;
58685;SDS011;44465;53.206;-6.106;2023-02-15T00:19:32;118.40;;;55.40;;
58685;SDS011;44465;53.206;-6.106;2023-02-15T00:21:58;112.78;;;52.83;;
58685;SDS011;44465;53.206;-6.106;2023-02-15T00:24:24;111.53;;;52.28;;
58685;SDS011;44465;53.206;-6.106;2023-02-15T00:26:49;109.78;;;49.30;;
58685;SDS011;44465;53.206;-6.106;2023-02-15T00:29:16;105.32;;;47.38;;
58685;SDS011;44465;53.206;-6.106;2023-02-15T00:31:43;97.35;;;45.75;;
58685;SDS011;44465;53.206;-6.106;2023-02-15T00:34:13;99.00;;;47.20;;
58685;SDS011;44465;53.206;-6.106;2023-02-15T00:36:43;90.50;;;42.72;;
58685;SDS011;44465;53.206;-6.106;2023-02-15T00:39:10;85.43;;;42.15;;
58685;SDS011;44465;53.206;-6.106;2023-02-15T00:41:36;89.10;;;41.42;;
58685;SDS011;44465;53.206;-6.106;2023-02-15T00:44:02;80.20;;;39.30;;
58685;SDS011;44465;53.206;-6.106;2023-02-15T00:46:28;82.45;;;39.25;;
58685;SDS011;44465;53.206;-6.106;2023-02-15T00:48:54;70.78;;;37.20;;
58685;SDS011;44465;53.206;-6.106;2023-02-15T00:51:19;73.45;;;35.92;;
58685;SDS011;44465;53.206;-6.106;2023-02-15T00:53:48;68.53;;;34.60;;
58685;SDS011;44465;53.206;-6.106;2023-02-15T00:56:14;71.90;;;34.97;;
58685;SDS011;44465;53.206;-6.106;2023-02-15T00:58:39;70.35;;;30.98;;
58685;SDS011;44465;53.206;-6.106;2023-02-15T01:01:09;59.90;;;30.80;;
58685;SDS011;44465;53.206;-6.106;2023-02-15T01:03:36;66.75;;;32.85;;
58685;SDS011;44465;53.206;-6.106;2023-02-15T01:06:03;66.30;;;30.23;;
58685;SDS011;44465;53.206;-6.106;2023-02-15T01:08:30;60.38;;;29.65;;
58685;SDS011;44465;53.206;-6.106;2023-02-15T01:10:56;54.60;;;27.83;;
58685;SDS011;44465;53.206;-6.106;2023-02-15T01:13:23;54.93;;;25.27;;
58685;SDS011;44465;53.206;-6.106;2023-02-15T01:15:52;52.35;;;26.67;;
58685;SDS011;44465;53.206;-6.106;2023-02-15T01:18:19;55.00;;;26.48;;
58685;SDS011;44465;53.206;-6.106;2023-02-15T01:20:45;45.53;;;23.35;;
58685;SDS011;44465;53.206;-6.106;2023-02-15T01:23:10;44.35;;;22.20;;
58685;SDS011;44465;53.206;-6.106;2023-02-15T01:25:36;44.42;;;21.55;;
58685;SDS011;44465;53.206;-6.106;2023-02-15T01:28:02;47.25;;;22.95;;
58685;SDS011;44465;53.206;-6.106;2023-02-15T01:30:27;41.05;;;21.27;;
58685;SDS011;44465;53.206;-6.106;2023-02-15T01:32:53;40.30;;;20.83;;
58685;SDS011;44465;53.206;-6.106;2023-02-15T01:35:19;39.63;;;19.75;;
58685;SDS011;44465;53.206;-6.106;2023-02-15T01:37:45;39.95;;;19.10;;
58685;SDS011;44465;53.206;-6.106;2023-02-15T01:40:14;37.17;;;20.17;;
58685;SDS011;44465;53.206;-6.106;2023-02-15T01:42:43;34.88;;;17.88;;
58685;SDS011;44465;53.206;-6.106;2023-02-15T01:50:34;36.20;;;16.65;;
58685;SDS011;44465;53.206;-6.106;2023-02-15T01:55:47;26.67;;;15.27;;
58685;SDS011;44465;53.206;-6.106;2023-02-15T01:58:25;29.77;;;15.13;;
58685;SDS011;44465;53.206;-6.106;2023-02-15T02:00:54;29.90;;;14.27;;
58685;SDS011;44465;53.206;-6.106;2023-02-15T02:03:24;28.20;;;13.55;;
58685;SDS011;44465;53.206;-6.106;2023-02-15T02:06:11;22.77;;;12.93;;
58685;SDS011;44465;53.206;-6.106;2023-02-15T02:08:38;27.02;;;12.90;;
58685;SDS011;44465;53.206;-6.106;2023-02-15T02:11:11;26.98;;;12.80;;
58685;SDS011;44465;53.206;-6.106;2023-02-15T02:13:39;21.48;;;11.68;;
58685;SDS011;44465;53.206;-6.106;2023-02-15T02:27:29;21.63;;;10.80;;
58685;SDS011;44465;53.206;-6.106;2023-02-15T02:30:07;23.92;;;10.45;;
58685;SDS011;44465;53.206;-6.106;2023-02-15T02:35:23;18.33;;;9.57;;
58685;SDS011;44465;53.206;-6.106;2023-02-15T02:40:56;17.92;;;8.68;;
58685;SDS011;44465;53.206;-6.106;2023-02-15T02:46:19;14.98;;;8.13;;
58685;SDS011;44465;53.206;-6.106;2023-02-15T02:48:49;17.05;;;8.57;;
58685;SDS011;44465;53.206;-6.106;2023-02-15T02:51:15;19.33;;;8.68;;
58685;SDS011;44465;53.206;-6.106;2023-02-15T02:53:47;17.30;;;8.73;;
58685;SDS011;44465;53.206;-6.106;2023-02-15T02:58:49;13.40;;;7.50;;
58685;SDS011;44465;53.206;-6.106;2023-02-15T03:01:24;17.75;;;8.35;;
58685;SDS011;44465;53.206;-6.106;2023-02-15T03:03:58;14.10;;;7.37;;
58685;SDS011;44465;53.206;-6.106;2023-02-15T03:06:30;15.60;;;8.00;;
58685;SDS011;44465;53.206;-6.106;2023-02-15T03:09:39;15.90;;;8.67;;
58685;SDS011;44465;53.206;-6.106;2023-02-15T03:12:09;13.05;;;6.63;;
58685;SDS011;44465;53.206;-6.106;2023-02-15T03:14:42;14.23;;;7.72;;
58685;SDS011;44465;53.206;-6.106;2023-02-15T03:17:10;13.93;;;7.40;;
58685;SDS011;44465;53.206;-6.106;2023-02-15T03:19:38;13.73;;;7.38;;
58685;SDS011;44465;53.206;-6.106;2023-02-15T03:22:12;14.00;;;6.80;;
58685;SDS011;44465;53.206;-6.106;2023-02-15T03:24:49;14.07;;;6.88;;
58685;SDS011;44465;53.206;-6.106;2023-02-15T03:27:24;14.02;;;6.82;;
58685;SDS011;44465;53.206;-6.106;2023-02-15T03:29:53;12.45;;;6.60;;
58685;SDS011;44465;53.206;-6.106;2023-02-15T03:32:23;10.52;;;5.88;;
58685;SDS011;44465;53.206;-6.106;2023-02-15T03:34:53;9.63;;;5.93;;
58685;SDS011;44465;53.206;-6.106;2023-02-15T03:40:00;11.10;;;6.00;;
58685;SDS011;44465;53.206;-6.106;2023-02-15T03:45:47;9.98;;;5.35;;
58685;SDS011;44465;53.206;-6.106;2023-02-15T03:48:24;8.63;;;5.70;;
58685;SDS011;44465;53.206;-6.106;2023-02-15T03:50:54;8.43;;;5.65;;
58685;SDS011;44465;53.206;-6.106;2023-02-15T03:53:44;10.45;;;5.50;;
58685;SDS011;44465;53.206;-6.106;2023-02-15T03:56:13;9.65;;;5.47;;
58685;SDS011;44465;53.206;-6.106;2023-02-15T03:58:38;9.82;;;5.07;;
58685;SDS011;44465;53.206;-6.106;2023-02-15T04:01:26;10.68;;;5.15;;
58685;SDS011;44465;53.206;-6.106;2023-02-15T04:04:20;8.93;;;4.88;;
58685;SDS011;44465;53.206;-6.106;2023-02-15T04:06:49;9.77;;;5.00;;
58685;SDS011;44465;53.206;-6.106;2023-02-15T04:09:14;11.70;;;5.13;;
58685;SDS011;44465;53.206;-6.106;2023-02-15T04:12:00;8.18;;;4.90;;
58685;SDS011;44465;53.206;-6.106;2023-02-15T04:14:25;9.07;;;4.75;;
58685;SDS011;44465;53.206;-6.106;2023-02-15T04:17:09;8.38;;;4.93;;
58685;SDS011;44465;53.206;-6.106;2023-02-15T04:19:35;10.10;;;4.97;;
58685;SDS011;44465;53.206;-6.106;2023-02-15T04:22:19;8.57;;;4.95;;
58685;SDS011;44465;53.206;-6.106;2023-02-15T04:25:04;8.20;;;4.47;;
58685;SDS011;44465;53.206;-6.106;2023-02-15T04:27:40;7.90;;;4.57;;
58685;SDS011;44465;53.206;-6.106;2023-02-15T04:30:07;9.32;;;4.57;;
58685;SDS011;44465;53.206;-6.106;2023-02-15T04:32:33;7.80;;;4.80;;
58685;SDS011;44465;53.206;-6.106;2023-02-15T04:35:00;6.72;;;4.75;;
58685;SDS011;44465;53.206;-6.106;2023-02-15T04:37:25;8.13;;;4.45;;
58685;SDS011;44465;53.206;-6.106;2023-02-15T04:39:51;8.88;;;5.15;;
58685;SDS011;44465;53.206;-6.106;2023-02-15T04:42:17;9.75;;;4.78;;
58685;SDS011;44465;53.206;-6.106;2023-02-15T04:44:42;7.00;;;4.20;;
58685;SDS011;44465;53.206;-6.106;2023-02-15T04:47:08;8.02;;;4.72;;
58685;SDS011;44465;53.206;-6.106;2023-02-15T04:49:34;5.05;;;4.05;;
58685;SDS011;44465;53.206;-6.106;2023-02-15T04:51:59;8.27;;;4.50;;
58685;SDS011;44465;53.206;-6.106;2023-02-15T04:54:25;7.97;;;4.65;;
58685;SDS011;44465;53.206;-6.106;2023-02-15T04:56:50;6.10;;;4.28;;
58685;SDS011;44465;53.206;-6.106;2023-02-15T04:59:16;5.63;;;4.07;;
58685;SDS011;44465;53.206;-6.106;2023-02-15T05:01:44;7.40;;;4.13;;
58685;SDS011;44465;53.206;-6.106;2023-02-15T05:04:10;10.00;;;4.72;;
58685;SDS011;44465;53.206;-6.106;2023-02-15T05:06:35;6.40;;;3.95;;
58685;SDS011;44465;53.206;-6.106;2023-02-15T05:09:01;6.70;;;3.80;;
58685;SDS011;44465;53.206;-6.106;2023-02-15T05:11:26;6.07;;;3.83;;
58685;SDS011;44465;53.206;-6.106;2023-02-15T05:13:52;8.77;;;4.13;;
58685;SDS011;44465;53.206;-6.106;2023-02-15T05:16:18;5.78;;;4.10;;
58685;SDS011;44465;53.206;-6.106;2023-02-15T05:18:43;6.22;;;3.70;;
58685;SDS011;44465;53.206;-6.106;2023-02-15T05:21:09;4.82;;;3.75;;
58685;SDS011;44465;53.206;-6.106;2023-02-15T05:23:35;7.10;;;3.80;;
58685;SDS011;44465;53.206;-6.106;2023-02-15T05:26:01;6.03;;;3.88;;
58685;SDS011;44465;53.206;-6.106;2023-02-15T05:28:47;5.97;;;3.83;;
58685;SDS011;44465;53.206;-6.106;2023-02-15T05:31:13;4.97;;;3.95;;
58685;SDS011;44465;53.206;-6.106;2023-02-15T05:33:40;6.43;;;3.53;;
58685;SDS011;44465;53.206;-6.106;2023-02-15T05:36:06;5.85;;;3.63;;
58685;SDS011;44465;53.206;-6.106;2023-02-15T05:38:32;8.38;;;4.13;;
58685;SDS011;44465;53.206;-6.106;2023-02-15T05:40:58;4.13;;;3.70;;
58685;SDS011;44465;53.206;-6.106;2023-02-15T05:43:24;5.45;;;3.50;;
58685;SDS011;44465;53.206;-6.106;2023-02-15T05:45:51;4.70;;;3.83;;
58685;SDS011;44465;53.206;-6.106;2023-02-15T05:50:44;5.00;;;3.70;;
58685;SDS011;44465;53.206;-6.106;2023-02-15T05:53:10;4.47;;;3.50;;
58685;SDS011;44465;53.206;-6.106;2023-02-15T05:55:39;5.45;;;3.90;;
58685;SDS011;44465;53.206;-6.106;2023-02-15T05:58:06;6.10;;;3.65;;
58685;SDS011;44465;53.206;-6.106;2023-02-15T06:00:33;5.33;;;3.50;;
58685;SDS011;44465;53.206;-6.106;2023-02-15T06:02:59;4.68;;;3.28;;
58685;SDS011;44465;53.206;-6.106;2023-02-15T06:05:24;6.97;;;3.47;;
58685;SDS011;44465;53.206;-6.106;2023-02-15T06:07:50;5.70;;;3.83;;
58685;SDS011;44465;53.206;-6.106;2023-02-15T06:10:15;3.70;;;3.08;;
58685;SDS011;44465;53.206;-6.106;2023-02-15T06:12:41;5.28;;;3.08;;
58685;SDS011;44465;53.206;-6.106;2023-02-15T06:15:06;4.38;;;3.38;;
58685;SDS011;44465;53.206;-6.106;2023-02-15T06:17:32;4.72;;;2.65;;
58685;SDS011;44465;53.206;-6.106;2023-02-15T06:19:58;5.40;;;3.28;;
58685;SDS011;44465;53.206;-6.106;2023-02-15T06:22:24;3.33;;;2.80;;
58685;SDS011;44465;53.206;-6.106;2023-02-15T06:24:49;3.53;;;2.85;;
58685;SDS011;44465;53.206;-6.106;2023-02-15T06:27:15;4.68;;;2.90;;
58685;SDS011;44465;53.206;-6.106;2023-02-15T06:29:40;3.72;;;2.92;;
58685;SDS011;44465;53.206;-6.106;2023-02-15T06:32:06;5.70;;;2.92;;
58685;SDS011;44465;53.206;-6.106;2023-02-15T06:34:31;4.22;;;2.60;;
58685;SDS011;44465;53.206;-6.106;2023-02-15T06:36:57;3.33;;;2.70;;
58685;SDS011;44465;53.206;-6.106;2023-02-15T06:39:23;3.10;;;2.80;;
58685;SDS011;44465;53.206;-6.106;2023-02-15T06:41:48;2.85;;;2.53;;
58685;SDS011;44465;53.206;-6.106;2023-02-15T06:44:14;3.65;;;2.58;;
58685;SDS011;44465;53.206;-6.106;2023-02-15T06:46:39;4.70;;;2.72;;
58685;SDS011;44465;53.206;-6.106;2023-02-15T06:49:05;2.67;;;2.22;;
58685;SDS011;44465;53.206;-6.106;2023-02-15T06:51:30;2.28;;;2.08;;
58685;SDS011;44465;53.206;-6.106;2023-02-15T06:53:56;2.83;;;2.40;;
58685;SDS011;44465;53.206;-6.106;2023-02-15T06:56:21;2.85;;;2.50;;
58685;SDS011;44465;53.206;-6.106;2023-02-15T06:58:47;3.58;;;2.30;;
58685;SDS011;44465;53.206;-6.106;2023-02-15T07:01:14;2.33;;;2.13;;
58685;SDS011;44465;53.206;-6.106;2023-02-15T07:03:40;2.85;;;2.08;;
58685;SDS011;44465;53.206;-6.106;2023-02-15T07:06:05;3.30;;;2.33;;
58685;SDS011;44465;53.206;-6.106;2023-02-15T07:08:33;2.38;;;2.17;;
58685;SDS011;44465;53.206;-6.106;2023-02-15T07:11:03;2.92;;;2.05;;
58685;SDS011;44465;53.206;-6.106;2023-02-15T07:13:47;3.03;;;2.08;;
58685;SDS011;44465;53.206;-6.106;2023-02-15T07:16:13;2.97;;;2.28;;
58685;SDS011;44465;53.206;-6.106;2023-02-15T07:18:39;2.95;;;1.70;;
58685;SDS011;44465;53.206;-6.106;2023-02-15T07:21:05;3.38;;;2.13;;
58685;SDS011;44465;53.206;-6.106;2023-02-15T07:23:34;2.10;;;1.90;;
58685;SDS011;44465;53.206;-6.106;2023-02-15T07:26:01;2.50;;;1.98;;
58685;SDS011;44465;53.206;-6.106;2023-02-15T07:28:27;2.65;;;1.88;;
58685;SDS011;44465;53.206;-6.106;2023-02-15T07:30:53;2.92;;;1.83;;
58685;SDS011;44465;53.206;-6.106;2023-02-15T07:33:19;2.67;;;1.90;;
58685;SDS011;44465;53.206;-6.106;2023-02-15T07:35:53;2.28;;;1.90;;
58685;SDS011;44465;53.206;-6.106;2023-02-15T07:38:20;4.35;;;2.30;;
58685;SDS011;44465;53.206;-6.106;2023-02-15T07:40:46;6.93;;;1.95;;
58685;SDS011;44465;53.206;-6.106;2023-02-15T07:43:12;4.20;;;1.92;;
58685;SDS011;44465;53.206;-6.106;2023-02-15T07:45:38;3.13;;;1.88;;
58685;SDS011;44465;53.206;-6.106;2023-02-15T07:48:04;2.88;;;1.45;;
58685;SDS011;44465;53.206;-6.106;2023-02-15T07:50:30;2.53;;;1.80;;
58685;SDS011;44465;53.206;-6.106;2023-02-15T07:52:56;4.43;;;1.70;;
58685;SDS011;44465;53.206;-6.106;2023-02-15T07:55:21;3.30;;;1.85;;
58685;SDS011;44465;53.206;-6.106;2023-02-15T07:57:48;3.90;;;1.75;;
58685;SDS011;44465;53.206;-6.106;2023-02-15T08:00:16;14.40;;;2.50;;
58685;SDS011;44465;53.206;-6.106;2023-02-15T08:02:49;11.45;;;3.03;;
58685;SDS011;44465;53.206;-6.106;2023-02-15T08:05:39;14.75;;;2.63;;
58685;SDS011;44465;53.206;-6.106;2023-02-15T08:08:06;17.27;;;3.13;;
58685;SDS011;44465;53.206;-6.106;2023-02-15T08:10:33;16.95;;;3.47;;
58685;SDS011;44465;53.206;-6.106;2023-02-15T08:13:17;13.63;;;2.60;;
58685;SDS011;44465;53.206;-6.106;2023-02-15T08:15:49;14.68;;;2.67;;
58685;SDS011;44465;53.206;-6.106;2023-02-15T08:18:15;13.77;;;3.00;;
58685;SDS011;44465;53.206;-6.106;2023-02-15T08:20:41;15.10;;;3.40;;
58685;SDS011;44465;53.206;-6.106;2023-02-15T08:23:07;11.48;;;2.92;;
58685;SDS011;44465;53.206;-6.106;2023-02-15T08:25:33;17.42;;;4.18;;
58685;SDS011;44465;53.206;-6.106;2023-02-15T08:27:58;12.02;;;2.53;;
58685;SDS011;44465;53.206;-6.106;2023-02-15T08:30:24;12.55;;;3.15;;
58685;SDS011;44465;53.206;-6.106;2023-02-15T08:32:49;17.70;;;3.55;;
58685;SDS011;44465;53.206;-6.106;2023-02-15T08:35:15;13.73;;;3.72;;
58685;SDS011;44465;53.206;-6.106;2023-02-15T08:37:40;20.63;;;3.17;;
58685;SDS011;44465;53.206;-6.106;2023-02-15T08:40:06;14.25;;;3.35;;
58685;SDS011;44465;53.206;-6.106;2023-02-15T08:42:32;30.98;;;5.15;;
58685;SDS011;44465;53.206;-6.106;2023-02-15T08:44:58;45.25;;;6.07;;
58685;SDS011;44465;53.206;-6.106;2023-02-15T08:47:24;46.78;;;5.82;;
58685;SDS011;44465;53.206;-6.106;2023-02-15T08:49:49;53.35;;;7.45;;
58685;SDS011;44465;53.206;-6.106;2023-02-15T08:52:16;34.30;;;6.20;;
58685;SDS011;44465;53.206;-6.106;2023-02-15T08:54:42;82.32;;;10.25;;
58685;SDS011;44465;53.206;-6.106;2023-02-15T08:57:09;34.33;;;6.97;;
58685;SDS011;44465;53.206;-6.106;2023-02-15T08:59:35;33.40;;;6.47;;
58685;SDS011;44465;53.206;-6.106;2023-02-15T09:02:01;42.47;;;6.43;;
58685;SDS011;44465;53.206;-6.106;2023-02-15T09:04:27;43.25;;;6.55;;
58685;SDS011;44465;53.206;-6.106;2023-02-15T09:06:53;20.67;;;4.28;;
58685;SDS011;44465;53.206;-6.106;2023-02-15T09:09:20;27.33;;;5.22;;
58685;SDS011;44465;53.206;-6.106;2023-02-15T09:11:47;28.05;;;5.25;;
58685;SDS011;44465;53.206;-6.106;2023-02-15T09:14:18;16.63;;;4.68;;
58685;SDS011;44465;53.206;-6.106;2023-02-15T09:16:49;19.52;;;4.38;;
58685;SDS011;44465;53.206;-6.106;2023-02-15T09:19:17;22.50;;;4.53;;
58685;SDS011;44465;53.206;-6.106;2023-02-15T09:21:44;21.05;;;4.82;;
58685;SDS011;44465;53.206;-6.106;2023-02-15T09:24:10;24.05;;;4.75;;
58685;SDS011;44465;53.206;-6.106;2023-02-15T09:29:07;25.27;;;4.25;;
58685;SDS011;44465;53.206;-6.106;2023-02-15T09:31:38;22.85;;;3.67;;
58685;SDS011;44465;53.206;-6.106;2023-02-15T09:34:12;17.42;;;4.18;;
58685;SDS011;44465;53.206;-6.106;2023-02-15T09:36:40;35.17;;;5.18;;
58685;SDS011;44465;53.206;-6.106;2023-02-15T09:39:13;30.85;;;3.72;;
58685;SDS011;44465;53.206;-6.106;2023-02-15T10:01:21;21.67;;;4.00;;
58685;SDS011;44465;53.206;-6.106;2023-02-15T10:06:42;23.80;;;4.93;;
58685;SDS011;44465;53.206;-6.106;2023-02-15T10:23:41;10.88;;;2.42;;
58685;SDS011;44465;53.206;-6.106;2023-02-15T10:26:15;13.45;;;2.85;;
58685;SDS011;44465;53.206;-6.106;2023-02-15T10:31:24;17.58;;;3.22;;
58685;SDS011;44465;53.206;-6.106;2023-02-15T10:34:38;19.27;;;3.75;;
58685;SDS011;44465;53.206;-6.106;2023-02-15T10:39:12;16.23;;;2.90;;
58685;SDS011;44465;53.206;-6.106;2023-02-15T10:47:37;20.40;;;3.17;;
58685;SDS011;44465;53.206;-6.106;2023-02-15T10:50:24;18.48;;;3.00;;
58685;SDS011;44465;53.206;-6.106;2023-02-15T10:53:18;16.50;;;3.22;;
58685;SDS011;44465;53.206;-6.106;2023-02-15T10:56:20;23.85;;;3.80;;
58685;SDS011;44465;53.206;-6.106;2023-02-15T11:01:40;27.92;;;4.45;;
58685;SDS011;44465;53.206;-6.106;2023-02-15T11:06:43;21.67;;;3.38;;
58685;SDS011;44465;53.206;-6.106;2023-02-15T11:09:19;20.65;;;2.65;;
58685;SDS011;44465;53.206;-6.106;2023-02-15T11:11:50;21.58;;;3.13;;
58685;SDS011;44465;53.206;-6.106;2023-02-15T11:14:23;13.15;;;2.97;;
58685;SDS011;44465;53.206;-6.106;2023-02-15T11:17:04;15.52;;;3.05;;
58685;SDS011;44465;53.206;-6.106;2023-02-15T11:19:35;13.32;;;2.65;;
58685;SDS011;44465;53.206;-6.106;2023-02-15T11:22:06;11.70;;;3.05;;
58685;SDS011;44465;53.206;-6.106;2023-02-15T11:24:42;8.82;;;2.50;;
58685;SDS011;44465;53.206;-6.106;2023-02-15T11:29:57;11.85;;;2.60;;
58685;SDS011;44465;53.206;-6.106;2023-02-15T11:32:33;8.38;;;2.20;;
58685;SDS011;44465;53.206;-6.106;2023-02-15T11:40:19;13.85;;;2.60;;
58685;SDS011;44465;53.206;-6.106;2023-02-15T11:42:49;11.73;;;1.83;;
58685;SDS011;44465;53.206;-6.106;2023-02-15T11:45:22;10.23;;;2.10;;
58685;SDS011;44465;53.206;-6.106;2023-02-15T11:47:59;9.13;;;2.00;;
58685;SDS011;44465;53.206;-6.106;2023-02-15T11:50:27;12.50;;;2.35;;
58685;SDS011;44465;53.206;-6.106;2023-02-15T11:53:09;10.50;;;1.85;;
58685;SDS011;44465;53.206;-6.106;2023-02-15T11:55:39;7.72;;;1.92;;
58685;SDS011;44465;53.206;-6.106;2023-02-15T11:58:13;6.25;;;1.55;;
58685;SDS011;44465;53.206;-6.106;2023-02-15T12:01:10;6.57;;;1.50;;
58685;SDS011;44465;53.206;-6.106;2023-02-15T12:03:41;11.25;;;2.35;;
58685;SDS011;44465;53.206;-6.106;2023-02-15T12:06:49;6.97;;;1.80;;
58685;SDS011;44465;53.206;-6.106;2023-02-15T12:09:36;9.57;;;1.95;;
58685;SDS011;44465;53.206;-6.106;2023-02-15T12:12:28;5.68;;;1.67;;
58685;SDS011;44465;53.206;-6.106;2023-02-15T12:14:55;5.82;;;1.33;;
58685;SDS011;44465;53.206;-6.106;2023-02-15T12:19:53;7.68;;;1.85;;
58685;SDS011;44465;53.206;-6.106;2023-02-15T12:22:23;6.30;;;1.65;;
58685;SDS011;44465;53.206;-6.106;2023-02-15T12:24:51;5.55;;;1.70;;
58685;SDS011;44465;53.206;-6.106;2023-02-15T12:27:37;12.77;;;2.28;;
58685;SDS011;44465;53.206;-6.106;2023-02-15T12:35:54;9.35;;;1.83;;
58685;SDS011;44465;53.206;-6.106;2023-02-15T12:38:25;10.60;;;2.17;;
58685;SDS011;44465;53.206;-6.106;2023-02-15T12:41:10;12.40;;;2.38;;
58685;SDS011;44465;53.206;-6.106;2023-02-15T12:43:47;11.43;;;3.50;;
58685;SDS011;44465;53.206;-6.106;2023-02-15T12:46:29;10.98;;;2.90;;
58685;SDS011;44465;53.206;-6.106;2023-02-15T12:49:18;11.90;;;2.50;;
58685;SDS011;44465;53.206;-6.106;2023-02-15T12:56:54;15.30;;;3.67;;
58685;SDS011;44465;53.206;-6.106;2023-02-15T12:59:20;22.77;;;3.42;;
58685;SDS011;44465;53.206;-6.106;2023-02-15T13:01:46;16.67;;;3.60;;
58685;SDS011;44465;53.206;-6.106;2023-02-15T13:04:25;23.88;;;3.97;;
58685;SDS011;44465;53.206;-6.106;2023-02-15T13:06:54;17.85;;;3.95;;
58685;SDS011;44465;53.206;-6.106;2023-02-15T13:11:56;20.35;;;3.78;;
58685;SDS011;44465;53.206;-6.106;2023-02-15T13:17:00;12.98;;;2.92;;
58685;SDS011;44465;53.206;-6.106;2023-02-15T13:21:56;15.27;;;3.28;;
58685;SDS011;44465;53.206;-6.106;2023-02-15T13:24:27;17.38;;;3.50;;
58685;SDS011;44465;53.206;-6.106;2023-02-15T13:26:58;14.38;;;3.15;;
58685;SDS011;44465;53.206;-6.106;2023-02-15T13:29:26;17.40;;;2.95;;
58685;SDS011;44465;53.206;-6.106;2023-02-15T13:31:54;13.93;;;3.10;;
58685;SDS011;44465;53.206;-6.106;2023-02-15T13:42:41;12.63;;;2.65;;
58685;SDS011;44465;53.206;-6.106;2023-02-15T13:53:45;17.45;;;3.05;;
58685;SDS011;44465;53.206;-6.106;2023-02-15T13:56:40;10.68;;;2.35;;
58685;SDS011;44465;53.206;-6.106;2023-02-15T14:02:15;14.45;;;3.10;;
58685;SDS011;44465;53.206;-6.106;2023-02-15T14:10:31;10.27;;;2.90;;
58685;SDS011;44465;53.206;-6.106;2023-02-15T14:13:08;7.43;;;2.30;;
58685;SDS011;44465;53.206;-6.106;2023-02-15T14:15:38;7.70;;;2.65;;
58685;SDS011;44465;53.206;-6.106;2023-02-15T14:21:32;8.05;;;2.70;;
58685;SDS011;44465;53.206;-6.106;2023-02-15T14:32:09;9.13;;;2.63;;
58685;SDS011;44465;53.206;-6.106;2023-02-15T14:34:45;7.60;;;2.10;;
58685;SDS011;44465;53.206;-6.106;2023-02-15T14:45:31;6.75;;;2.00;;
58685;SDS011;44465;53.206;-6.106;2023-02-15T14:48:09;6.90;;;1.77;;
58685;SDS011;44465;53.206;-6.106;2023-02-15T14:50:41;7.63;;;2.08;;
58685;SDS011;44465;53.206;-6.106;2023-02-15T14:58:36;4.40;;;1.38;;
58685;SDS011;44465;53.206;-6.106;2023-02-15T15:01:06;3.20;;;1.20;;
58685;SDS011;44465;53.206;-6.106;2023-02-15T15:03:34;7.60;;;2.03;;
58685;SDS011;44465;53.206;-6.106;2023-02-15T15:06:01;6.93;;;2.25;;
58685;SDS011;44465;53.206;-6.106;2023-02-15T15:08:38;5.47;;;1.40;;
58685;SDS011;44465;53.206;-6.106;2023-02-15T15:16:55;5.00;;;1.50;;
58685;SDS011;44465;53.206;-6.106;2023-02-15T15:22:24;4.78;;;1.55;;
58685;SDS011;44465;53.206;-6.106;2023-02-15T15:41:32;4.78;;;1.73;;
58685;SDS011;44465;53.206;-6.106;2023-02-15T15:44:26;4.13;;;1.42;;
58685;SDS011;44465;53.206;-6.106;2023-02-15T15:47:19;5.10;;;2.10;;
58685;SDS011;44465;53.206;-6.106;2023-02-15T15:49:57;12.00;;;2.70;;
58685;SDS011;44465;53.206;-6.106;2023-02-15T15:52:23;8.95;;;2.33;;
58685;SDS011;44465;53.206;-6.106;2023-02-15T15:54:58;9.10;;;1.83;;
58685;SDS011;44465;53.206;-6.106;2023-02-15T15:57:30;9.88;;;1.88;;
58685;SDS011;44465;53.206;-6.106;2023-02-15T16:00:00;7.18;;;1.75;;
58685;SDS011;44465;53.206;-6.106;2023-02-15T16:02:26;11.48;;;1.92;;
58685;SDS011;44465;53.206;-6.106;2023-02-15T16:04:52;6.78;;;1.38;;
58685;SDS011;44465;53.206;-6.106;2023-02-15T16:09:59;5.65;;;1.58;;
58685;SDS011;44465;53.206;-6.106;2023-02-15T16:12:29;4.72;;;1.60;;
58685;SDS011;44465;53.206;-6.106;2023-02-15T16:14:57;8.73;;;1.95;;
58685;SDS011;44465;53.206;-6.106;2023-02-15T16:17:27;4.70;;;1.55;;
58685;SDS011;44465;53.206;-6.106;2023-02-15T16:20:04;7.43;;;1.95;;
58685;SDS011;44465;53.206;-6.106;2023-02-15T16:22:38;9.13;;;1.90;;
58685;SDS011;44465;53.206;-6.106;2023-02-15T16:25:13;5.18;;;1.95;;
58685;SDS011;44465;53.206;-6.106;2023-02-15T16:27:47;4.28;;;1.35;;
58685;SDS011;44465;53.206;-6.106;2023-02-15T16:30:17;3.70;;;1.63;;
58685;SDS011;44465;53.206;-6.106;2023-02-15T16:32:46;4.43;;;1.27;;
58685;SDS011;44465;53.206;-6.106;2023-02-15T16:35:16;5.40;;;1.67;;
58685;SDS011;44465;53.206;-6.106;2023-02-15T16:37:43;6.72;;;2.03;;
58685;SDS011;44465;53.206;-6.106;2023-02-15T16:40:52;10.70;;;1.98;;
58685;SDS011;44465;53.206;-6.106;2023-02-15T16:43:07;7.72;;;1.75;;
58685;SDS011;44465;53.206;-6.106;2023-02-15T16:45:40;7.38;;;1.60;;
58685;SDS011;44465;53.206;-6.106;2023-02-15T16:48:08;11.80;;;2.30;;
58685;SDS011;44465;53.206;-6.106;2023-02-15T16:50:40;339.27;;;159.35;;
58685;SDS011;44465;53.206;-6.106;2023-02-15T16:53:17;318.70;;;161.70;;
58685;SDS011;44465;53.206;-6.106;2023-02-15T16:55:48;299.77;;;153.18;;
58685;SDS011;44465;53.206;-6.106;2023-02-15T16:58:16;286.02;;;144.68;;
58685;SDS011;44465;53.206;-6.106;2023-02-15T17:00:44;266.60;;;137.82;;
58685;SDS011;44465;53.206;-6.106;2023-02-15T17:10:39;194.85;;;101.30;;
58685;SDS011;44465;53.206;-6.106;2023-02-15T17:13:11;201.13;;;102.88;;
58685;SDS011;44465;53.206;-6.106;2023-02-15T17:15:38;181.80;;;93.68;;
58685;SDS011;44465;53.206;-6.106;2023-02-15T17:18:15;170.73;;;86.95;;
58685;SDS011;44465;53.206;-6.106;2023-02-15T17:20:44;149.15;;;81.75;;
58685;SDS011;44465;53.206;-6.106;2023-02-15T17:25:55;146.98;;;77.72;;
58685;SDS011;44465;53.206;-6.106;2023-02-15T17:28:23;127.97;;;67.28;;
58685;SDS011;44465;53.206;-6.106;2023-02-15T17:30:51;143.38;;;70.85;;
58685;SDS011;44465;53.206;-6.106;2023-02-15T17:41:29;105.85;;;57.15;;
58685;SDS011;44465;53.206;-6.106;2023-02-15T17:43:57;115.90;;;56.75;;
58685;SDS011;44465;53.206;-6.106;2023-02-15T17:46:22;108.28;;;55.17;;
58685;SDS011;44465;53.206;-6.106;2023-02-15T17:48:53;105.00;;;53.85;;
58685;SDS011;44465;53.206;-6.106;2023-02-15T17:51:21;110.72;;;53.97;;
58685;SDS011;44465;53.206;-6.106;2023-02-15T17:53:47;92.80;;;50.38;;
58685;SDS011;44465;53.206;-6.106;2023-02-15T17:56:35;87.75;;;48.13;;
58685;SDS011;44465;53.206;-6.106;2023-02-15T17:59:02;97.85;;;47.33;;
58685;SDS011;44465;53.206;-6.106;2023-02-15T18:01:41;86.55;;;45.90;;
58685;SDS011;44465;53.206;-6.106;2023-02-15T18:04:29;87.10;;;43.47;;
58685;SDS011;44465;53.206;-6.106;2023-02-15T18:07:16;76.78;;;38.88;;
58685;SDS011;44465;53.206;-6.106;2023-02-15T18:10:01;81.32;;;41.17;;
58685;SDS011;44465;53.206;-6.106;2023-02-15T18:12:46;71.45;;;37.63;;
58685;SDS011;44465;53.206;-6.106;2023-02-15T18:15:11;75.55;;;38.15;;
58685;SDS011;44465;53.206;-6.106;2023-02-15T18:17:38;73.28;;;38.47;;
58685;SDS011;44465;53.206;-6.106;2023-02-15T18:20:14;68.55;;;36.13;;
58685;SDS011;44465;53.206;-6.106;2023-02-15T18:22:41;64.18;;;35.72;;